Terminal Aerodrome Forecast
Issued by NWS Northern Indiana

Home | Current Version | Previous Version | Graphics & Text | Print | Product List | Glossary On
Versions: 1 2 3 4 5 6 7 8 9 10 11 12 13 14
000
FTUS43 KIWX 180520
TAFFWA
TAF
KFWA 180520Z 1806/1906 22011KT P6SM SKC WS020/25040KT
     FM181300 24012KT P6SM SCT150
     FM190100 26005KT P6SM SCT200=

USA.gov is the U.S. government's official web portal to all federal, state and local government web resources and services.